Time;durP1;ratioP1;P1;durP2;ratioP2;P2;SDS_P1;SDS_P2;PMS_P1;PMS_P2;Temp;Humidity;BMP_temperature;BMP_pressure;BME280_temperature;BME280_humidity;BME280_pressure;Samples;Min_cycle;Max_cycle;Signal;HPM_P1;HPM_P2
2022/01/11 00:01:41;;;;;;;33.63;17.88;;;;;;;;;;5036619;28;20030;-79
2022/01/11 00:04:07;;;;;;;36.33;19.55;;;;;;;;;;5020406;28;20550;-78
2022/01/11 00:06:47;;;;;;;37.90;18.60;;;;;;;;;;5021778;28;20051;-79
2022/01/11 00:12:10;;;;;;;35.15;18.45;;;;;;;;;;5018839;28;20115;-79
2022/01/11 00:14:37;;;;;;;39.42;17.95;;;;;;;;;;5022645;28;20435;-79
2022/01/11 00:17:04;;;;;;;36.20;17.42;;;;;;;;;;5022199;28;20093;-78
2022/01/11 00:19:30;;;;;;;32.70;18.13;;;;;;;;;;5032192;28;20085;-79
2022/01/11 00:21:57;;;;;;;36.00;17.75;;;;;;;;;;5026981;28;20030;-78
2022/01/11 00:24:35;;;;;;;37.92;18.38;;;;;;;;;;5022841;28;20033;-79
2022/01/11 00:27:04;;;;;;;36.70;16.85;;;;;;;;;;5023262;28;20388;-79
2022/01/11 00:29:30;;;;;;;35.33;17.33;;;;;;;;;;5023711;28;20472;-78
2022/01/11 00:32:01;;;;;;;37.95;17.52;;;;;;;;;;5023131;28;20022;-79
2022/01/11 00:34:38;;;;;;;36.80;15.85;;;;;;;;;;5021829;28;20436;-79
2022/01/11 00:37:04;;;;;;;33.95;17.27;;;;;;;;;;5021950;28;20044;-79
2022/01/11 00:39:31;;;;;;;42.65;19.85;;;;;;;;;;5023352;28;20373;-80
2022/01/11 00:41:57;;;;;;;38.97;18.38;;;;;;;;;;5022042;28;20036;-80
2022/01/11 00:44:23;;;;;;;40.42;18.05;;;;;;;;;;5022329;28;20034;-79
2022/01/11 00:46:49;;;;;;;43.55;19.13;;;;;;;;;;5023099;28;20026;-79
2022/01/11 00:49:16;;;;;;;39.40;17.60;;;;;;;;;;5022770;28;20026;-80
2022/01/11 00:51:42;;;;;;;41.90;19.08;;;;;;;;;;5021707;28;20021;-80
2022/01/11 00:54:09;;;;;;;41.35;19.00;;;;;;;;;;5024185;28;20033;-77
2022/01/11 00:56:36;;;;;;;38.13;18.58;;;;;;;;;;5023001;28;20064;-78
2022/01/11 00:59:05;;;;;;;37.83;19.00;;;;;;;;;;5021591;28;20034;-79
2022/01/11 01:01:37;;;;;;;40.28;18.80;;;;;;;;;;5020484;28;20054;-79
2022/01/11 01:04:04;;;;;;;40.03;19.07;;;;;;;;;;5022677;28;20018;-79
2022/01/11 01:06:30;;;;;;;47.33;20.98;;;;;;;;;;5022635;28;20261;-78
2022/01/11 01:08:56;;;;;;;27.05;14.93;;;;;;;;;;5014138;28;20033;-79
2022/01/11 01:11:22;;;;;;;38.17;18.77;;;;;;;;;;5024280;28;20030;-79
2022/01/11 01:13:49;;;;;;;40.28;18.27;;;;;;;;;;5024518;28;20064;-79
2022/01/11 01:16:15;;;;;;;41.00;18.58;;;;;;;;;;5022634;28;20056;-79
2022/01/11 01:18:41;;;;;;;41.45;20.00;;;;;;;;;;5023409;28;20030;-79
2022/01/11 01:21:07;;;;;;;42.20;20.08;;;;;;;;;;5020880;28;20030;-78
2022/01/11 01:23:34;;;;;;;43.28;19.63;;;;;;;;;;5021323;28;20048;-79
2022/01/11 01:26:01;;;;;;;46.20;21.45;;;;;;;;;;5021469;28;20587;-79
2022/01/11 01:28:27;;;;;;;41.47;20.48;;;;;;;;;;5020750;28;20022;-78
2022/01/11 01:30:55;;;;;;;42.70;21.02;;;;;;;;;;5021697;28;20030;-78
2022/01/11 01:33:21;;;;;;;40.00;20.02;;;;;;;;;;5020665;28;20073;-78
2022/01/11 01:35:54;;;;;;;41.08;18.23;;;;;;;;;;5021542;28;20033;-78
2022/01/11 01:38:24;;;;;;;38.83;18.77;;;;;;;;;;5023070;28;20018;-79
2022/01/11 01:40:52;;;;;;;39.38;18.33;;;;;;;;;;5022188;28;20096;-79
2022/01/11 01:43:18;;;;;;;36.22;17.42;;;;;;;;;;5020488;28;20028;-78
2022/01/11 01:45:45;;;;;;;33.97;16.67;;;;;;;;;;5021301;28;20022;-79
2022/01/11 01:48:16;;;;;;;34.28;16.92;;;;;;;;;;5021493;28;20391;-80
2022/01/11 01:50:42;;;;;;;29.02;14.23;;;;;;;;;;5014873;28;20029;-78
2022/01/11 01:53:14;;;;;;;30.85;17.05;;;;;;;;;;5019905;28;20109;-80
2022/01/11 01:55:41;;;;;;;30.85;15.60;;;;;;;;;;5020385;28;20042;-81
2022/01/11 01:58:07;;;;;;;30.73;15.48;;;;;;;;;;5022088;28;20049;-78
2022/01/11 02:00:40;;;;;;;32.70;15.02;;;;;;;;;;5022020;28;20022;-79
2022/01/11 02:03:10;;;;;;;30.13;15.25;;;;;;;;;;5021413;28;20476;-79
2022/01/11 02:05:37;;;;;;;32.30;15.73;;;;;;;;;;5021070;28;20026;-79
2022/01/11 02:08:04;;;;;;;34.95;15.68;;;;;;;;;;5021742;28;20030;-79
2022/01/11 02:10:30;;;;;;;32.92;16.50;;;;;;;;;;5022065;28;20029;-79
2022/01/11 02:12:56;;;;;;;32.38;16.73;;;;;;;;;;5021394;28;20575;-78
2022/01/11 02:15:23;;;;;;;31.40;15.55;;;;;;;;;;5021641;28;20526;-78
2022/01/11 02:17:49;;;;;;;31.33;16.08;;;;;;;;;;5020645;28;20099;-79
2022/01/11 02:20:15;;;;;;;29.67;16.30;;;;;;;;;;5021756;28;20030;-79
2022/01/11 02:22:41;;;;;;;35.55;16.55;;;;;;;;;;5019387;28;20041;-80
2022/01/11 02:25:07;;;;;;;32.30;15.90;;;;;;;;;;5020879;28;20026;-79
2022/01/11 02:27:34;;;;;;;33.30;15.13;;;;;;;;;;5019865;28;20509;-80
2022/01/11 02:30:00;;;;;;;30.60;15.57;;;;;;;;;;5021656;28;20040;-79
2022/01/11 02:32:26;;;;;;;28.77;13.80;;;;;;;;;;5020036;28;20015;-80
2022/01/11 02:34:53;;;;;;;32.47;15.95;;;;;;;;;;5007711;28;20440;-79
2022/01/11 02:37:19;;;;;;;34.20;15.52;;;;;;;;;;5001527;28;20028;-80
2022/01/11 02:39:46;;;;;;;31.42;15.88;;;;;;;;;;5016231;28;20026;-79
2022/01/11 02:42:12;;;;;;;30.67;13.73;;;;;;;;;;5020367;28;20125;-78
2022/01/11 02:44:39;;;;;;;34.88;15.98;;;;;;;;;;5019568;28;20026;-80
2022/01/11 02:47:06;;;;;;;34.80;16.70;;;;;;;;;;5021444;28;20492;-80
2022/01/11 02:49:32;;;;;;;32.53;14.95;;;;;;;;;;5021350;28;20033;-80
2022/01/11 02:51:59;;;;;;;33.53;16.00;;;;;;;;;;5020128;28;20302;-79
2022/01/11 02:54:25;;;;;;;34.33;16.38;;;;;;;;;;5021386;28;20068;-80
2022/01/11 02:56:51;;;;;;;37.90;16.30;;;;;;;;;;5020743;28;20098;-79
2022/01/11 02:59:18;;;;;;;36.72;16.55;;;;;;;;;;5021310;28;20087;-79
2022/01/11 03:01:45;;;;;;;34.78;16.02;;;;;;;;;;5019018;28;20026;-79
2022/01/11 03:04:11;;;;;;;35.22;15.10;;;;;;;;;;5016193;28;20030;-77
2022/01/11 03:06:39;;;;;;;34.45;16.38;;;;;;;;;;5020629;28;20033;-79
2022/01/11 03:09:05;;;;;;;27.65;14.00;;;;;;;;;;5021613;28;20113;-79
2022/01/11 03:11:33;;;;;;;36.38;15.18;;;;;;;;;;5019647;28;20543;-80
2022/01/11 03:14:00;;;;;;;35.33;15.20;;;;;;;;;;5019548;28;20033;-78
2022/01/11 03:16:26;;;;;;;40.10;21.70;;;;;;;;;;5019717;28;20437;-79
2022/01/11 03:18:52;;;;;;;54.33;28.00;;;;;;;;;;5017866;28;20026;-79
2022/01/11 03:21:19;;;;;;;37.70;19.98;;;;;;;;;;5009368;28;20079;-79
2022/01/11 03:23:45;;;;;;;30.92;16.10;;;;;;;;;;5019400;28;20124;-79
2022/01/11 03:26:11;;;;;;;30.55;16.10;;;;;;;;;;5022325;28;20026;-79
2022/01/11 03:28:37;;;;;;;32.10;15.85;;;;;;;;;;5020685;28;20022;-78
2022/01/11 03:31:03;;;;;;;29.67;14.32;;;;;;;;;;5020647;28;20030;-79
2022/01/11 03:33:30;;;;;;;24.45;12.07;;;;;;;;;;5019652;28;20060;-79
2022/01/11 03:35:56;;;;;;;29.55;13.90;;;;;;;;;;5020218;28;20098;-79
2022/01/11 03:38:22;;;;;;;33.42;15.43;;;;;;;;;;5016549;28;20153;-81
2022/01/11 03:40:49;;;;;;;28.40;14.05;;;;;;;;;;5020274;28;20041;-78
2022/01/11 03:43:21;;;;;;;29.88;13.70;;;;;;;;;;5019620;28;20508;-79
2022/01/11 03:45:47;;;;;;;34.83;15.02;;;;;;;;;;5020633;28;20051;-79
2022/01/11 03:48:15;;;;;;;28.92;13.13;;;;;;;;;;5023571;28;20022;-80
2022/01/11 03:50:42;;;;;;;30.85;13.95;;;;;;;;;;5021716;28;20061;-79
2022/01/11 03:53:12;;;;;;;30.17;14.57;;;;;;;;;;5021374;28;20026;-78
2022/01/11 03:58:17;;;;;;;27.02;13.93;;;;;;;;;;5010687;28;20027;-79
2022/01/11 04:00:44;;;;;;;34.22;15.48;;;;;;;;;;5003878;28;20031;-79
2022/01/11 04:03:10;;;;;;;27.58;12.13;;;;;;;;;;5024048;28;20094;-79
2022/01/11 04:05:36;;;;;;;30.60;14.00;;;;;;;;;;5024382;28;20053;-79
2022/01/11 04:08:03;;;;;;;24.95;11.13;;;;;;;;;;5024869;28;20112;-79
2022/01/11 04:10:29;;;;;;;30.95;14.27;;;;;;;;;;5023929;28;20061;-80
2022/01/11 04:12:55;;;;;;;31.38;13.90;;;;;;;;;;5024117;28;20033;-79
2022/01/11 04:15:22;;;;;;;30.67;13.20;;;;;;;;;;5023230;28;20526;-79
2022/01/11 04:17:49;;;;;;;30.13;13.07;;;;;;;;;;5024725;28;20017;-80
2022/01/11 04:20:18;;;;;;;31.45;13.82;;;;;;;;;;5005143;28;20027;-79
2022/01/11 04:22:46;;;;;;;27.65;12.15;;;;;;;;;;5022589;28;20030;-80
2022/01/11 04:25:12;;;;;;;29.48;13.68;;;;;;;;;;5028085;28;20010;-79
2022/01/11 04:27:38;;;;;;;26.85;12.32;;;;;;;;;;5026768;28;20045;-79
2022/01/11 04:30:05;;;;;;;28.73;13.10;;;;;;;;;;5026736;28;20038;-80
2022/01/11 04:32:31;;;;;;;30.33;13.55;;;;;;;;;;5024970;28;20018;-79
2022/01/11 04:34:57;;;;;;;27.50;13.82;;;;;;;;;;5024467;28;20029;-80
2022/01/11 04:37:24;;;;;;;29.88;13.32;;;;;;;;;;5024496;28;20014;-80
2022/01/11 04:39:50;;;;;;;30.25;14.75;;;;;;;;;;5022240;28;20038;-80
2022/01/11 04:42:16;;;;;;;29.85;13.38;;;;;;;;;;5021654;28;20527;-80
2022/01/11 04:44:42;;;;;;;29.83;13.10;;;;;;;;;;5022664;28;20365;-80
2022/01/11 04:47:09;;;;;;;29.58;13.23;;;;;;;;;;5023569;28;20061;-80
2022/01/11 04:49:35;;;;;;;28.50;13.57;;;;;;;;;;5027097;28;20049;-79
2022/01/11 04:52:01;;;;;;;28.63;15.23;;;;;;;;;;5022653;28;20030;-79
2022/01/11 04:54:27;;;;;;;31.00;13.50;;;;;;;;;;5022975;28;20406;-79
2022/01/11 04:56:53;;;;;;;29.85;12.88;;;;;;;;;;5021580;28;20056;-79
2022/01/11 04:59:20;;;;;;;28.75;13.35;;;;;;;;;;5021777;28;20032;-79
2022/01/11 05:01:46;;;;;;;32.72;14.68;;;;;;;;;;5021417;28;20025;-79
2022/01/11 05:04:13;;;;;;;25.30;12.30;;;;;;;;;;5022836;28;20519;-77
2022/01/11 05:06:39;;;;;;;24.58;11.70;;;;;;;;;;5021070;28;20080;-79
2022/01/11 05:09:05;;;;;;;28.75;13.98;;;;;;;;;;5022945;28;20153;-79
2022/01/11 05:11:31;;;;;;;27.30;13.55;;;;;;;;;;5019624;28;20029;-80
2022/01/11 05:13:57;;;;;;;28.90;13.05;;;;;;;;;;5023651;28;20018;-79
2022/01/11 05:16:23;;;;;;;25.10;12.23;;;;;;;;;;5020446;28;20029;-81
2022/01/11 05:18:50;;;;;;;25.98;11.68;;;;;;;;;;5022190;28;20041;-80
2022/01/11 05:21:16;;;;;;;27.25;13.38;;;;;;;;;;5021943;28;20072;-80
2022/01/11 05:23:42;;;;;;;25.23;13.57;;;;;;;;;;5023277;28;20117;-78
2022/01/11 05:26:09;;;;;;;30.38;13.25;;;;;;;;;;5019955;28;20097;-79
2022/01/11 05:28:35;;;;;;;30.63;13.25;;;;;;;;;;5021252;28;20069;-79
2022/01/11 05:31:02;;;;;;;22.23;11.30;;;;;;;;;;5021794;28;20030;-79
2022/01/11 05:33:28;;;;;;;25.40;13.10;;;;;;;;;;5022900;28;20026;-79
2022/01/11 05:35:54;;;;;;;23.23;12.68;;;;;;;;;;5019840;28;20022;-79
2022/01/11 05:38:21;;;;;;;23.42;12.10;;;;;;;;;;5020382;28;20022;-78
2022/01/11 05:40:47;;;;;;;25.30;11.70;;;;;;;;;;5020337;28;20081;-79
2022/01/11 05:43:14;;;;;;;24.27;11.35;;;;;;;;;;5019621;28;20076;-77
2022/01/11 05:45:41;;;;;;;27.30;11.35;;;;;;;;;;5020730;28;20030;-78
2022/01/11 05:48:07;;;;;;;24.60;12.60;;;;;;;;;;5022342;28;20033;-80
2022/01/11 05:50:34;;;;;;;25.65;11.95;;;;;;;;;;5022644;28;20113;-79
2022/01/11 05:53:01;;;;;;;25.30;10.40;;;;;;;;;;5023233;28;20032;-81
2022/01/11 05:55:28;;;;;;;25.58;11.55;;;;;;;;;;5011722;28;20053;-80
2022/01/11 05:57:54;;;;;;;24.45;11.57;;;;;;;;;;5014006;28;20057;-79
2022/01/11 06:00:21;;;;;;;22.63;10.90;;;;;;;;;;5022799;28;20044;-80
2022/01/11 06:02:52;;;;;;;29.23;12.50;;;;;;;;;;5023302;28;20033;-81
2022/01/11 06:05:18;;;;;;;27.60;12.48;;;;;;;;;;5020505;28;20037;-81
2022/01/11 06:07:44;;;;;;;22.80;10.13;;;;;;;;;;5022881;28;20025;-81
2022/01/11 06:10:11;;;;;;;26.58;12.40;;;;;;;;;;5023565;28;20026;-81
2022/01/11 06:12:37;;;;;;;26.80;12.00;;;;;;;;;;5024416;28;20029;-79
2022/01/11 06:15:03;;;;;;;28.08;12.65;;;;;;;;;;5022773;28;20086;-80
2022/01/11 06:17:32;;;;;;;25.58;12.38;;;;;;;;;;5022620;28;20072;-80
2022/01/11 06:19:58;;;;;;;25.20;13.30;;;;;;;;;;5022706;28;20034;-80
2022/01/11 06:22:25;;;;;;;28.95;14.13;;;;;;;;;;5021850;28;20087;-80
2022/01/11 06:24:52;;;;;;;27.42;12.73;;;;;;;;;;5021167;28;20476;-80
2022/01/11 06:27:18;;;;;;;26.48;13.35;;;;;;;;;;5001035;28;20127;-80
2022/01/11 06:29:44;;;;;;;31.02;13.75;;;;;;;;;;5001537;28;20504;-82
2022/01/11 06:32:11;;;;;;;27.58;13.45;;;;;;;;;;5001408;28;20018;-80
2022/01/11 06:34:38;;;;;;;26.85;13.90;;;;;;;;;;5014973;28;20028;-80
2022/01/11 06:37:04;;;;;;;29.42;13.98;;;;;;;;;;5019926;28;20025;-80
2022/01/11 06:39:30;;;;;;;25.75;13.48;;;;;;;;;;5019464;28;20026;-81
2022/01/11 06:41:56;;;;;;;26.90;14.15;;;;;;;;;;5019989;28;20037;-80
2022/01/11 06:44:22;;;;;;;29.77;14.60;;;;;;;;;;5019229;28;20041;-79
2022/01/11 06:46:48;;;;;;;26.75;12.63;;;;;;;;;;5019738;28;20033;-80
2022/01/11 06:49:18;;;;;;;25.90;12.07;;;;;;;;;;5031569;28;20087;-80
2022/01/11 06:51:44;;;;;;;27.17;13.80;;;;;;;;;;5038967;28;20092;-80
2022/01/11 06:54:10;;;;;;;29.50;13.57;;;;;;;;;;5023954;28;20036;-80
2022/01/11 06:56:36;;;;;;;27.95;13.18;;;;;;;;;;5021256;28;20041;-81
2022/01/11 06:59:04;;;;;;;27.65;13.10;;;;;;;;;;5019443;28;20026;-81
2022/01/11 07:01:30;;;;;;;28.65;13.98;;;;;;;;;;5020650;28;20026;-81
2022/01/11 07:03:56;;;;;;;33.00;13.48;;;;;;;;;;5021264;28;20030;-81
2022/01/11 07:06:23;;;;;;;25.77;12.73;;;;;;;;;;5019149;28;20056;-80
2022/01/11 07:08:49;;;;;;;27.02;13.20;;;;;;;;;;5019445;28;20080;-80
2022/01/11 07:11:15;;;;;;;26.38;13.30;;;;;;;;;;5019656;28;20053;-80
2022/01/11 07:13:41;;;;;;;27.90;13.43;;;;;;;;;;5019045;28;20057;-81
2022/01/11 07:16:08;;;;;;;29.13;13.25;;;;;;;;;;5017845;28;20022;-80
2022/01/11 07:18:34;;;;;;;25.95;12.80;;;;;;;;;;5019975;28;20021;-80
2022/01/11 07:21:00;;;;;;;29.98;14.73;;;;;;;;;;5023856;28;20018;-80
2022/01/11 07:23:26;;;;;;;25.73;13.63;;;;;;;;;;5023453;28;20064;-80
2022/01/11 07:25:52;;;;;;;28.85;13.63;;;;;;;;;;5022165;28;20488;-81
2022/01/11 07:28:18;;;;;;;27.70;13.93;;;;;;;;;;5022195;28;20461;-81
2022/01/11 07:30:44;;;;;;;27.20;13.77;;;;;;;;;;5022959;28;20044;-81
2022/01/11 07:33:10;;;;;;;28.73;13.73;;;;;;;;;;5024262;28;20049;-80
2022/01/11 07:35:36;;;;;;;28.83;13.77;;;;;;;;;;5025458;28;20032;-80
2022/01/11 07:38:03;;;;;;;23.25;13.25;;;;;;;;;;5026523;28;20033;-79
2022/01/11 07:40:29;;;;;;;26.77;13.25;;;;;;;;;;5023994;28;20032;-80
2022/01/11 07:42:55;;;;;;;26.45;14.55;;;;;;;;;;5023734;28;20037;-80
2022/01/11 07:45:21;;;;;;;21.17;11.82;;;;;;;;;;5022732;28;20496;-80
2022/01/11 07:47:47;;;;;;;24.70;13.00;;;;;;;;;;5022851;28;20030;-80
2022/01/11 07:50:14;;;;;;;26.88;12.70;;;;;;;;;;5027838;28;20041;-81
2022/01/11 07:52:40;;;;;;;27.20;12.75;;;;;;;;;;5023463;28;20018;-80
2022/01/11 07:55:07;;;;;;;27.15;14.00;;;;;;;;;;5040185;28;20412;-81
2022/01/11 07:57:33;;;;;;;25.05;12.80;;;;;;;;;;5022321;28;20421;-80
2022/01/11 07:59:59;;;;;;;22.17;12.85;;;;;;;;;;5022955;28;20030;-80
2022/01/11 08:02:26;;;;;;;21.92;11.93;;;;;;;;;;5022116;28;20032;-80
2022/01/11 08:04:53;;;;;;;26.10;13.50;;;;;;;;;;5022960;28;20026;-81
2022/01/11 08:07:20;;;;;;;25.23;13.38;;;;;;;;;;5023376;28;20062;-81
2022/01/11 08:09:46;;;;;;;24.17;13.73;;;;;;;;;;5022680;28;20030;-80
2022/01/11 08:12:12;;;;;;;26.75;13.57;;;;;;;;;;5021997;28;20022;-80
2022/01/11 08:14:38;;;;;;;28.58;13.27;;;;;;;;;;5021467;28;20034;-81
2022/01/11 08:17:04;;;;;;;24.30;13.10;;;;;;;;;;5021736;28;20025;-80
2022/01/11 08:19:30;;;;;;;23.27;12.85;;;;;;;;;;5022599;28;20030;-79
2022/01/11 08:21:57;;;;;;;29.33;13.65;;;;;;;;;;5021492;28;20032;-80
2022/01/11 08:24:23;;;;;;;26.13;13.15;;;;;;;;;;5021610;28;20026;-81
2022/01/11 08:26:50;;;;;;;27.00;14.35;;;;;;;;;;5016147;28;20077;-79
2022/01/11 08:29:18;;;;;;;23.85;12.98;;;;;;;;;;5001387;28;20033;-79
2022/01/11 08:31:45;;;;;;;26.90;14.15;;;;;;;;;;5000514;28;20424;-79
2022/01/11 08:34:14;;;;;;;25.65;13.50;;;;;;;;;;5014596;28;20044;-79
2022/01/11 08:36:45;;;;;;;24.02;13.38;;;;;;;;;;5019700;28;20412;-79
2022/01/11 08:39:12;;;;;;;28.95;13.77;;;;;;;;;;5030646;28;20108;-79
2022/01/11 08:41:38;;;;;;;22.85;12.32;;;;;;;;;;5041127;28;20060;-80
2022/01/11 08:44:05;;;;;;;26.95;12.82;;;;;;;;;;5040607;28;20060;-79
2022/01/11 08:46:31;;;;;;;25.00;13.18;;;;;;;;;;5026417;28;20076;-80
2022/01/11 08:48:57;;;;;;;22.25;12.68;;;;;;;;;;5020465;28;20026;-80
2022/01/11 08:51:24;;;;;;;25.27;11.75;;;;;;;;;;5021642;28;20049;-79
2022/01/11 08:53:51;;;;;;;22.42;12.48;;;;;;;;;;5021853;28;20531;-80
2022/01/11 08:56:19;;;;;;;20.55;10.85;;;;;;;;;;5019839;28;20575;-80
2022/01/11 08:58:46;;;;;;;22.27;11.65;;;;;;;;;;5021400;28;20025;-80
2022/01/11 09:01:12;;;;;;;21.73;12.90;;;;;;;;;;5020989;28;20037;-80
2022/01/11 09:03:39;;;;;;;23.60;12.40;;;;;;;;;;5020369;28;20057;-80
2022/01/11 09:06:08;;;;;;;23.55;11.27;;;;;;;;;;5019982;28;20080;-79
2022/01/11 09:08:34;;;;;;;21.83;11.52;;;;;;;;;;5021519;28;20053;-81
2022/01/11 09:11:01;;;;;;;21.80;12.20;;;;;;;;;;5020739;28;20476;-79
2022/01/11 09:13:27;;;;;;;24.13;12.23;;;;;;;;;;5019960;28;20096;-80
2022/01/11 09:15:53;;;;;;;20.95;12.00;;;;;;;;;;5023527;28;20044;-79
2022/01/11 09:18:19;;;;;;;23.23;11.48;;;;;;;;;;5024131;28;20101;-79
2022/01/11 09:20:46;;;;;;;23.67;11.48;;;;;;;;;;5023429;28;20029;-79
2022/01/11 09:23:12;;;;;;;21.85;12.63;;;;;;;;;;5019839;28;20065;-79
2022/01/11 09:25:38;;;;;;;21.15;11.82;;;;;;;;;;5020376;28;20022;-80
2022/01/11 09:28:04;;;;;;;21.25;12.40;;;;;;;;;;5020206;28;20025;-80
2022/01/11 09:30:31;;;;;;;21.50;10.38;;;;;;;;;;5020558;28;20032;-81
2022/01/11 09:32:57;;;;;;;19.55;11.43;;;;;;;;;;5019567;28;20026;-81
2022/01/11 09:35:23;;;;;;;19.75;10.57;;;;;;;;;;5019725;28;20314;-79
2022/01/11 09:37:49;;;;;;;22.42;11.50;;;;;;;;;;5019730;28;20022;-80
2022/01/11 09:40:16;;;;;;;22.33;10.95;;;;;;;;;;5019862;28;20026;-80
2022/01/11 09:42:42;;;;;;;19.30;10.60;;;;;;;;;;5018419;28;20085;-80
2022/01/11 09:45:09;;;;;;;21.40;11.27;;;;;;;;;;5018786;28;20026;-80
2022/01/11 09:47:35;;;;;;;21.52;11.90;;;;;;;;;;5018384;28;20034;-80
2022/01/11 09:50:01;;;;;;;21.33;11.13;;;;;;;;;;5015155;28;20499;-80
2022/01/11 09:52:28;;;;;;;18.02;10.30;;;;;;;;;;5021187;28;20022;-80
2022/01/11 09:54:54;;;;;;;19.25;11.43;;;;;;;;;;5018512;28;20056;-81
2022/01/11 09:57:20;;;;;;;18.98;10.52;;;;;;;;;;5020685;28;20021;-80
2022/01/11 09:59:47;;;;;;;19.17;10.65;;;;;;;;;;5019993;28;20083;-79
2022/01/11 10:02:14;;;;;;;22.08;12.55;;;;;;;;;;5020044;28;20048;-79
2022/01/11 10:04:40;;;;;;;19.48;10.70;;;;;;;;;;5003902;28;20030;-81
2022/01/11 10:07:08;;;;;;;19.38;10.15;;;;;;;;;;4998297;28;20377;-79
2022/01/11 10:09:48;;;;;;;15.75;9.05;;;;;;;;;;5000123;28;20406;-79
2022/01/11 10:12:15;;;;;;;22.52;12.80;;;;;;;;;;5002114;28;20030;-80
2022/01/11 10:14:59;;;;;;;21.33;12.13;;;;;;;;;;5018560;28;20033;-79
2022/01/11 10:17:27;;;;;;;21.35;12.05;;;;;;;;;;5019342;28;20109;-81
2022/01/11 10:20:07;;;;;;;21.80;11.43;;;;;;;;;;5021311;28;20042;-80
2022/01/11 10:22:34;;;;;;;22.58;11.85;;;;;;;;;;5021073;28;20033;-80
2022/01/11 10:25:01;;;;;;;22.60;12.13;;;;;;;;;;5007799;28;20378;-80
2022/01/11 10:27:32;;;;;;;22.88;11.63;;;;;;;;;;5010401;28;20028;-81
2022/01/11 10:30:06;;;;;;;16.48;9.77;;;;;;;;;;5022496;28;20053;-81
2022/01/11 10:32:35;;;;;;;23.77;11.95;;;;;;;;;;5022836;28;20026;-82
2022/01/11 10:35:12;;;;;;;21.17;11.02;;;;;;;;;;5005682;28;20023;-80
2022/01/11 10:37:39;;;;;;;22.50;12.23;;;;;;;;;;5020747;28;20026;-79
2022/01/11 10:40:08;;;;;;;22.17;11.70;;;;;;;;;;5022171;28;20029;-81
2022/01/11 10:42:38;;;;;;;25.08;11.63;;;;;;;;;;5020449;28;20100;-79
2022/01/11 10:45:06;;;;;;;18.88;11.40;;;;;;;;;;5022465;28;20503;-80
2022/01/11 10:47:34;;;;;;;22.92;11.98;;;;;;;;;;5022330;28;20042;-80
2022/01/11 10:50:12;;;;;;;24.75;12.82;;;;;;;;;;5019573;28;20094;-80
2022/01/11 10:52:38;;;;;;;26.77;13.00;;;;;;;;;;5020766;28;20037;-79
2022/01/11 10:55:05;;;;;;;26.17;12.25;;;;;;;;;;5018793;28;20069;-80
2022/01/11 10:57:33;;;;;;;22.15;11.95;;;;;;;;;;5019282;28;20384;-81
2022/01/11 11:00:17;;;;;;;24.80;12.50;;;;;;;;;;5020197;28;20052;-81
2022/01/11 11:02:44;;;;;;;21.98;12.80;;;;;;;;;;5021216;28;20060;-81
2022/01/11 11:05:13;;;;;;;22.25;12.77;;;;;;;;;;5021688;28;20049;-79
2022/01/11 11:07:39;;;;;;;22.38;10.93;;;;;;;;;;5022671;28;20053;-80
2022/01/11 11:10:06;;;;;;;25.83;14.45;;;;;;;;;;5023889;28;20034;-80
2022/01/11 11:12:32;;;;;;;23.33;12.20;;;;;;;;;;5025024;28;20034;-80
2022/01/11 11:15:02;;;;;;;24.95;12.85;;;;;;;;;;5013562;28;20013;-80
2022/01/11 11:17:30;;;;;;;24.98;12.80;;;;;;;;;;5038746;28;20018;-80
2022/01/11 11:19:59;;;;;;;24.20;12.30;;;;;;;;;;5019735;28;20420;-82
2022/01/11 11:22:25;;;;;;;23.95;11.93;;;;;;;;;;5021273;28;20098;-81
2022/01/11 11:24:53;;;;;;;22.33;11.63;;;;;;;;;;5019993;28;20049;-82
2022/01/11 11:27:20;;;;;;;20.50;11.63;;;;;;;;;;5020047;28;20093;-80
2022/01/11 11:29:50;;;;;;;22.90;12.57;;;;;;;;;;5018755;28;20063;-80
2022/01/11 11:32:20;;;;;;;20.50;11.23;;;;;;;;;;5017956;28;20037;-81
2022/01/11 11:34:50;;;;;;;27.40;12.40;;;;;;;;;;5037017;28;20017;-81
2022/01/11 11:37:26;;;;;;;22.67;11.05;;;;;;;;;;5038271;28;20376;-80
2022/01/11 11:40:00;;;;;;;22.73;11.43;;;;;;;;;;5036248;28;20112;-80
2022/01/11 11:42:27;;;;;;;22.15;12.65;;;;;;;;;;5019645;28;20029;-81
2022/01/11 11:44:54;;;;;;;23.98;12.02;;;;;;;;;;5019831;28;20142;-81
2022/01/11 11:47:34;;;;;;;27.27;12.88;;;;;;;;;;5019874;28;20064;-81
2022/01/11 11:50:02;;;;;;;21.33;11.07;;;;;;;;;;5021649;28;20025;-81
2022/01/11 11:52:42;;;;;;;25.45;11.65;;;;;;;;;;5020049;28;20037;-81
2022/01/11 11:55:10;;;;;;;22.30;11.80;;;;;;;;;;5016430;28;20094;-81
2022/01/11 11:57:40;;;;;;;21.75;11.07;;;;;;;;;;5020798;28;20022;-81
2022/01/11 12:00:09;;;;;;;21.88;11.65;;;;;;;;;;5020590;28;20026;-81
2022/01/11 12:02:40;;;;;;;22.52;11.88;;;;;;;;;;5015345;28;20030;-82
2022/01/11 12:05:15;;;;;;;24.75;13.35;;;;;;;;;;5005481;28;20030;-81
2022/01/11 12:07:46;;;;;;;22.85;12.43;;;;;;;;;;5022611;28;20030;-81
2022/01/11 12:10:17;;;;;;;21.30;12.35;;;;;;;;;;5043007;28;20032;-81
2022/01/11 12:12:50;;;;;;;23.38;11.70;;;;;;;;;;5028783;28;20388;-81
2022/01/11 12:15:22;;;;;;;20.40;11.35;;;;;;;;;;5021960;28;20025;-81
2022/01/11 12:17:49;;;;;;;24.42;12.55;;;;;;;;;;5022866;28;20021;-81
2022/01/11 12:20:33;;;;;;;24.25;13.13;;;;;;;;;;5024309;28;20026;-80
2022/01/11 12:23:00;;;;;;;26.95;12.30;;;;;;;;;;5022701;28;20496;-79
2022/01/11 12:25:27;;;;;;;26.35;12.55;;;;;;;;;;5023575;28;20026;-82
2022/01/11 12:28:01;;;;;;;23.98;13.20;;;;;;;;;;5023802;28;20053;-81
2022/01/11 12:30:32;;;;;;;23.45;11.82;;;;;;;;;;5041287;28;20112;-81
2022/01/11 12:33:09;;;;;;;25.85;12.02;;;;;;;;;;5041607;28;20463;-81
2022/01/11 12:35:50;;;;;;;20.38;11.10;;;;;;;;;;5041431;28;20403;-81
2022/01/11 12:38:16;;;;;;;25.48;13.57;;;;;;;;;;5042595;28;20017;-80
2022/01/11 12:40:43;;;;;;;21.75;11.63;;;;;;;;;;5041365;28;20028;-80
2022/01/11 12:43:17;;;;;;;24.35;12.05;;;;;;;;;;5038248;28;20026;-81
2022/01/11 12:46:04;;;;;;;19.83;11.98;;;;;;;;;;5021159;28;20039;-79
2022/01/11 12:48:50;;;;;;;24.88;11.63;;;;;;;;;;5021902;28;20030;-82
2022/01/11 12:51:22;;;;;;;20.95;11.73;;;;;;;;;;5021660;28;20022;-80
2022/01/11 12:53:49;;;;;;;25.25;12.43;;;;;;;;;;5020420;28;20094;-81
2022/01/11 12:56:16;;;;;;;21.63;11.50;;;;;;;;;;5021199;28;20076;-80
2022/01/11 12:58:43;;;;;;;21.33;11.85;;;;;;;;;;5020336;28;20117;-81
2022/01/11 13:01:19;;;;;;;22.63;12.88;;;;;;;;;;5023093;28;20496;-82
2022/01/11 13:03:54;;;;;;;22.20;12.30;;;;;;;;;;5021654;28;20097;-81
2022/01/11 13:06:20;;;;;;;22.38;11.95;;;;;;;;;;5022431;28;20026;-81
2022/01/11 13:08:50;;;;;;;21.38;12.82;;;;;;;;;;5021835;28;20057;-80
2022/01/11 13:11:18;;;;;;;20.17;10.90;;;;;;;;;;5021676;28;20064;-80
2022/01/11 13:13:53;;;;;;;22.85;11.32;;;;;;;;;;5029575;28;20026;-79
2022/01/11 13:16:27;;;;;;;21.25;11.40;;;;;;;;;;5038885;28;20044;-79
2022/01/11 13:18:53;;;;;;;22.98;11.77;;;;;;;;;;5022902;28;20026;-80
2022/01/11 13:21:22;;;;;;;21.98;11.07;;;;;;;;;;5023697;28;20037;-80
2022/01/11 13:24:35;;;;;;;25.95;12.45;;;;;;;;;;5022553;28;20029;-79
2022/01/11 13:26:38;;;;;;;25.40;13.45;;;;;;;;;;5013202;28;20092;-80
2022/01/11 13:29:07;;;;;;;19.27;11.00;;;;;;;;;;5020493;28;20037;-80
2022/01/11 13:31:36;;;;;;;21.42;12.32;;;;;;;;;;5020168;28;20018;-81
2022/01/11 13:34:13;;;;;;;22.75;11.90;;;;;;;;;;5020309;28;20090;-80
2022/01/11 13:36:42;;;;;;;18.83;10.63;;;;;;;;;;5021237;28;20026;-80
2022/01/11 13:39:12;;;;;;;21.10;11.18;;;;;;;;;;5020949;28;20026;-81
2022/01/11 13:41:38;;;;;;;18.33;10.88;;;;;;;;;;5021445;28;20026;-80
2022/01/11 13:44:06;;;;;;;17.23;10.77;;;;;;;;;;5022921;28;20014;-80
2022/01/11 13:46:36;;;;;;;19.90;12.30;;;;;;;;;;5026317;28;20084;-80
2022/01/11 13:49:03;;;;;;;18.58;10.60;;;;;;;;;;5031089;28;20061;-80
2022/01/11 13:51:30;;;;;;;20.35;10.35;;;;;;;;;;5024465;28;20516;-81
2022/01/11 13:53:59;;;;;;;16.92;10.45;;;;;;;;;;5021254;28;20661;-80
2022/01/11 13:56:29;;;;;;;23.13;10.60;;;;;;;;;;5020856;28;20129;-80
2022/01/11 13:58:56;;;;;;;21.27;10.75;;;;;;;;;;5038712;28;20117;-80
2022/01/11 14:01:24;;;;;;;22.10;11.27;;;;;;;;;;5035865;28;20037;-81
2022/01/11 14:03:51;;;;;;;22.23;11.95;;;;;;;;;;5021838;28;20064;-80
2022/01/11 14:06:17;;;;;;;19.90;10.88;;;;;;;;;;5021510;28;20022;-80
2022/01/11 14:08:45;;;;;;;17.58;10.77;;;;;;;;;;5021070;28;20021;-81
2022/01/11 14:11:13;;;;;;;17.70;10.57;;;;;;;;;;5021174;28;20017;-81
2022/01/11 14:13:41;;;;;;;21.98;11.38;;;;;;;;;;5020965;28;20022;-80
2022/01/11 14:16:22;;;;;;;19.13;10.35;;;;;;;;;;5021626;28;20026;-81
2022/01/11 14:19:05;;;;;;;17.27;9.88;;;;;;;;;;5020416;28;20024;-79
2022/01/11 14:21:32;;;;;;;17.15;10.00;;;;;;;;;;5020149;28;20029;-81
2022/01/11 14:23:59;;;;;;;19.73;10.88;;;;;;;;;;5022576;28;20022;-82
2022/01/11 14:26:35;;;;;;;18.20;10.27;;;;;;;;;;5019526;28;20049;-81